Date,TemperatureHighF,TemperatureAvgF,TemperatureLowF,DewpointHighF,DewpointAvgF,DewpointLowF,HumidityHigh,HumidityAvg,HumidityLow,PressureMaxIn,PressureMinIn,WindSpeedMaxMPH,WindSpeedAvgMPH,GustSpeedMaxMPH,PrecipitationSumIn
2013-1-1,31.0,22.2,11.0,29.0,14.8,4.0,90,73,56,0.00,40.00,11,6,13,0.00
2013-1-2,23.0,16.7,8.0,17.0,12.8,7.0,95,84,72,0.00,40.00,12,8,16,0.00
2013-1-3,29.0,20.6,9.0,26.0,15.3,4.0,90,79,70,0.00,40.00,16,11,22,0.00
2013-1-4,28.0,23.0,18.0,22.0,18.1,14.0,89,81,73,0.00,40.00,24,14,31,0.00
2013-1-5,33.0,26.1,18.0,32.0,23.2,17.0,98,89,77,0.00,40.00,17,10,21,0.00
2013-1-6,35.0,32.9,29.0,33.0,30.1,27.0,96,89,76,0.00,40.00,20,12,27,0.00
2013-1-7,33.0,30.2,27.0,29.0,25.6,23.0,93,82,74,0.00,40.00,20,11,25,0.00
2013-1-8,36.0,29.2,23.0,29.0,25.5,21.0,92,86,73,0.00,40.00,16,9,20,0.00
2013-1-9,45.0,38.1,29.0,35.0,30.8,25.0,92,75,55,0.00,40.00,18,12,25,0.00
2013-1-10,42.0,33.4,25.0,35.0,29.7,24.0,96,86,66,0.00,40.00,12,6,16,0.00
2013-1-11,58.0,46.4,36.0,54.0,44.9,34.0,99,94,81,0.00,40.00,23,10,29,0.00
2013-1-12,59.0,51.2,47.0,54.0,49.4,45.0,99,93,82,0.00,40.00,16,9,22,0.00
2013-1-13,52.0,40.6,32.0,52.0,40.1,29.0,99,98,90,0.00,40.00,23,10,32,0.00
2013-1-14,31.0,25.3,21.0,29.0,19.6,16.0,91,78,66,0.00,40.00,22,10,29,0.00
2013-1-15,31.0,23.7,16.0,22.0,18.4,15.0,95,81,60,0.00,40.00,7,-3,11,0.00
2013-1-16,36.0,29.1,23.0,28.0,23.0,20.0,95,79,53,0.00,40.00,19,9,25,0.00
2013-1-17,39.0,31.4,19.0,31.0,23.8,10.0,95,74,50,0.00,40.00,23,10,29,0.00
2013-1-18,36.0,28.1,19.0,24.0,19.6,11.0,87,70,56,0.00,40.00,28,13,35,0.00
2013-1-19,48.0,41.1,35.0,36.0,29.5,24.0,77,63,54,0.00,40.00,25,18,34,0.00
2013-1-20,42.0,24.9,19.0,36.0,14.4,8.0,77,64,50,0.00,40.00,37,20,50,0.00
2013-1-21,19.0,15.9,9.0,12.0,7.7,3.0,81,69,54,0.00,40.00,26,15,35,0.00
2013-1-22,12.0,6.2,0.0,7.0,1.2,-4.0,88,79,70,0.00,40.00,21,9,25,0.00
2013-1-23,17.0,11.4,2.0,15.0,5.7,-2.0,95,77,59,0.00,40.00,16,7,20,0.00
2013-1-24,20.0,13.8,6.0,14.0,6.9,0.0,97,75,40,0.00,40.00,16,7,20,0.00
2013-1-25,22.0,18.6,16.0,21.0,15.3,9.0,98,86,74,0.00,40.00,11,7,14,0.00
2013-1-26,27.0,23.1,18.0,22.0,18.2,14.0,98,82,61,0.00,40.00,16,7,19,0.00
2013-1-27,31.0,22.8,11.0,29.0,18.4,10.0,95,83,69,0.00,40.00,17,7,21,0.00
2013-1-28,48.0,41.1,31.0,48.0,41.0,29.0,99,99,89,0.00,40.00,16,11,26,0.00
2013-1-29,59.0,50.2,38.0,56.0,49.2,38.0,99,96,88,0.00,40.00,22,12,29,0.00
2013-1-30,64.0,51.1,33.0,60.0,49.0,26.0,98,92,77,0.00,40.00,34,17,45,0.00
2013-1-31,33.0,21.1,16.0,26.0,12.9,8.0,83,70,58,0.00,40.00,32,21,39,0.00
2013-2-1,18.0,13.6,10.0,9.0,6.7,4.0,82,73,62,0.00,40.00,25,16,31,0.00
2013-2-2,24.0,17.9,12.0,22.0,14.8,7.0,94,87,73,0.00,40.00,14,10,21,0.00
2013-2-3,21.0,14.0,2.0,17.0,10.8,1.0,93,86,73,0.00,40.00,17,8,24,0.00
2013-2-4,27.0,21.0,17.0,24.0,18.7,13.0,97,90,81,0.00,40.00,10,6,14,0.00
2013-2-5,29.0,22.9,18.0,27.0,21.2,18.0,98,92,79,0.00,40.00,14,6,17,0.00
2013-2-6,37.0,23.8,9.0,28.0,14.5,5.0,94,69,39,0.00,40.00,18,5,24,0.00
2013-2-7,46.0,30.8,21.0,33.0,25.1,16.0,98,80,55,0.00,40.00,15,8,20,0.00
2013-2-8,32.0,28.0,19.0,32.0,25.1,16.0,99,88,72,0.00,40.00,21,10,27,0.00
2013-2-9,33.0,22.8,12.0,23.0,17.9,11.0,94,82,57,0.00,40.00,9,4,12,0.00
2013-2-10,44.0,33.2,21.0,41.0,28.0,20.0,95,81,60,0.00,40.00,23,9,28,0.00
2013-2-11,46.0,38.2,32.0,45.0,31.9,24.0,97,78,65,0.00,40.00,34,21,47,0.00
2013-2-12,34.0,31.7,30.0,28.0,25.0,24.0,85,75,70,0.00,40.00,24,12,29,0.00
2013-2-13,37.0,30.4,26.0,29.0,25.6,22.0,95,82,68,0.00,40.00,12,5,14,0.00
2013-2-14,41.0,35.5,30.0,37.0,31.6,26.0,97,86,68,0.00,40.00,28,14,36,0.00
2013-2-15,34.0,29.6,24.0,27.0,21.1,14.0,86,70,55,0.00,40.00,17,11,27,0.00
2013-2-16,26.0,22.3,16.0,22.0,15.9,9.0,92,76,59,0.00,40.00,21,9,26,4.53
2013-2-17,27.0,18.7,12.0,14.0,10.8,6.0,94,73,43,0.00,40.00,15,7,19,0.00
2013-2-18,50.0,33.7,16.0,38.0,23.8,12.0,85,67,51,0.00,40.00,20,13,29,0.00
2013-2-19,47.0,27.5,17.0,43.0,23.6,11.0,98,85,66,0.00,40.00,29,22,40,3.85
2013-2-20,22.0,19.7,17.0,19.0,14.3,11.0,94,79,64,0.00,40.00,21,15,27,6.72
2013-2-21,26.0,22.9,21.0,19.0,17.3,15.0,85,78,72,0.00,40.00,16,9,20,0.55
2013-2-22,35.0,28.6,22.0,35.0,27.5,19.0,99,95,84,0.00,40.00,21,11,27,4.49
2013-2-23,34.0,29.8,27.0,33.0,23.3,19.0,95,76,64,0.00,40.00,17,11,22,0.00
2013-2-24,36.0,29.5,24.0,28.0,23.9,19.0,87,79,68,0.00,40.00,17,10,22,0.00
2013-2-25,44.0,31.5,22.0,31.0,25.8,22.0,98,81,48,0.00,40.00,13,4,17,0.00
2013-2-26,34.0,31.4,29.0,33.0,29.1,27.0,99,90,79,0.00,40.00,27,17,35,0.00
2013-2-27,34.0,33.1,32.0,34.0,33.1,32.0,99,99,99,0.00,40.00,13,11,19,21.34
2013-2-28,38.0,33.6,31.0,35.0,31.9,30.0,99,93,77,0.00,40.00,19,10,25,14.07
2013-3-1,31.0,28.0,26.0,31.0,23.1,20.0,97,81,74,0.00,40.00,18,12,22,0.00
2013-3-2,27.0,25.7,24.0,22.0,19.9,18.0,87,78,73,0.00,40.00,15,6,19,1.65
2013-3-3,29.0,24.7,22.0,19.0,16.4,13.0,81,70,50,0.00,40.00,12,6,17,0.00
2013-3-4,36.0,26.0,16.0,25.0,19.1,15.0,94,76,50,0.00,40.00,9,1,11,0.00
2013-3-5,31.0,28.2,25.0,27.0,25.4,24.0,97,89,76,0.00,40.00,22,12,31,2.24
2013-3-6,38.0,32.3,27.0,30.0,27.9,25.0,92,83,70,0.00,40.00,21,10,26,0.00
2013-3-7,38.0,33.9,31.0,32.0,28.5,24.0,94,81,60,0.00,40.00,12,6,17,0.00
2013-3-8,48.0,33.8,24.0,29.0,24.6,22.0,91,71,41,0.00,40.00,7,2,9,0.00
2013-3-9,49.0,36.3,26.0,35.0,30.2,25.0,98,80,53,0.00,40.00,12,5,16,0.00
2013-3-10,59.0,52.6,42.0,42.0,39.0,36.0,80,60,51,0.00,40.00,20,12,30,0.55
2013-3-11,57.0,49.7,37.0,51.0,45.2,33.0,98,85,58,0.00,40.00,27,18,37,2.20
2013-3-12,37.0,34.1,31.0,34.0,30.0,26.0,92,85,73,0.00,40.00,20,13,27,0.00
2013-3-13,32.0,29.3,26.0,31.0,23.1,18.0,94,77,64,0.00,40.00,24,16,30,0.00
2013-3-14,42.0,31.1,22.0,25.0,21.2,18.0,87,67,49,0.00,40.00,16,8,21,0.00
2013-3-15,45.0,36.7,31.0,39.0,32.7,24.0,99,86,72,0.00,40.00,15,7,19,8.38
2013-3-16,36.0,31.8,29.0,36.0,30.7,26.0,99,95,82,0.00,40.00,17,10,22,4.49
2013-3-17,34.0,28.6,25.0,27.0,21.0,17.0,84,73,56,0.00,40.00,17,10,21,0.00
2013-3-18,37.0,32.4,28.0,37.0,30.3,22.0,99,92,77,0.00,40.00,19,12,28,1.65
2013-3-19,35.0,28.3,23.0,33.0,18.6,13.0,94,67,50,0.00,40.00,29,20,40,1.10
2013-3-20,30.0,25.7,18.0,21.0,14.9,10.0,82,63,51,0.00,40.00,22,13,27,0.00
2013-3-21,32.0,24.1,16.0,23.0,18.3,13.0,91,78,61,0.00,40.00,21,13,25,0.00
2013-3-22,42.0,31.3,26.0,25.0,20.8,18.0,84,65,45,0.00,40.00,16,10,21,0.00
2013-3-23,40.0,30.0,20.0,29.0,23.5,19.0,96,78,49,0.00,40.00,9,4,12,0.00
2013-3-24,35.0,30.0,24.0,29.0,25.2,23.0,97,83,64,0.00,40.00,25,14,32,0.00
2013-3-25,37.0,32.6,30.0,35.0,30.0,25.0,99,90,74,0.00,40.00,20,13,26,11.08
2013-3-26,42.0,35.9,33.0,33.0,30.7,28.0,91,81,57,0.00,40.00,18,10,22,0.55
2013-3-27,45.0,37.6,31.0,33.0,27.5,23.0,96,69,43,0.00,40.00,21,13,30,0.00
2013-3-28,52.0,39.5,29.0,29.0,26.6,25.0,86,62,38,0.00,40.00,14,9,22,0.00
2013-3-29,53.0,39.3,26.0,29.0,24.5,20.0,90,58,30,0.00,40.00,11,5,19,0.00
2013-3-30,55.0,42.0,27.0,34.0,26.8,22.0,86,58,33,0.00,40.00,14,6,24,0.00
2013-3-31,60.0,47.5,38.0,48.0,35.6,-99.9,96,68,35,0.00,40.00,22,9,29,0.00
2013-4-1,44.0,34.3,24.0,34.0,20.1,12.0,85,58,35,0.00,40.00,28,14,39,0.00
2013-4-2,43.0,30.9,22.0,23.0,16.0,11.0,87,56,32,0.00,40.00,22,11,29,0.00
2013-4-3,46.0,31.8,21.0,24.0,15.9,12.0,80,54,28,0.00,40.00,17,7,25,0.00
2013-4-4,57.0,38.5,22.0,23.0,17.4,15.0,80,47,21,0.00,40.00,13,5,17,0.00
2013-4-5,51.0,42.0,33.0,34.0,24.8,18.0,82,52,28,0.00,40.00,16,8,21,0.00
2013-4-6,58.0,44.7,32.0,29.0,25.3,22.0,83,49,31,0.00,40.00,21,13,29,0.00
2013-4-7,61.0,55.5,41.0,49.0,40.8,28.0,77,58,34,0.00,40.00,25,16,34,0.00
2013-4-8,71.0,52.3,37.0,59.0,46.2,33.0,95,80,57,0.00,40.00,26,10,34,0.00
2013-4-9,66.0,50.9,41.0,50.0,45.5,40.0,98,83,57,0.00,40.00,16,7,20,0.00
2013-4-10,49.0,45.9,43.0,48.0,45.5,42.0,99,98,95,0.00,40.00,21,10,34,3.89
2013-4-11,43.0,39.4,37.0,42.0,39.0,37.0,99,98,96,0.00,40.00,26,18,36,12.23
2013-4-12,42.0,39.5,37.0,40.0,36.8,32.0,99,90,71,0.00,40.00,20,11,27,14.52
2013-4-13,41.0,39.4,37.0,39.0,33.5,30.0,94,79,66,0.00,40.00,23,11,29,2.20
2013-4-14,51.0,41.9,35.0,42.0,36.7,31.0,96,81,64,0.00,40.00,15,6,19,0.00
2013-4-15,69.0,54.1,34.0,55.0,46.8,34.0,98,78,57,0.00,40.00,24,9,31,0.00
2013-4-16,63.0,54.5,49.0,55.0,49.4,42.0,98,84,56,0.00,40.00,17,6,22,4.49
2013-4-17,52.0,47.8,43.0,44.0,37.7,34.0,88,68,54,0.00,40.00,23,12,27,0.00
2013-4-18,78.0,59.7,44.0,66.0,56.2,41.0,98,89,62,0.00,40.00,35,9,45,2.79
2013-4-19,61.0,45.0,37.0,59.0,40.1,30.0,98,83,66,0.00,40.00,0,0,2,4.40
2013-4-20,42.0,35.9,31.0,31.0,25.9,20.0,95,68,43,0.00,40.00,0,0,0,0.00
2013-4-21,49.0,37.5,27.0,34.0,28.2,22.0,90,70,49,0.00,40.00,0,0,0,0.00
2013-4-22,64.0,46.3,30.0,38.0,32.5,28.0,98,65,28,0.00,40.00,0,0,0,0.00
2013-4-23,71.0,54.9,37.0,57.0,43.3,36.0,98,69,35,0.00,40.00,0,0,1,6.77
2013-4-24,57.0,42.2,36.0,56.0,39.2,28.0,98,89,62,0.00,40.00,0,0,0,12.89
2013-4-25,51.0,41.5,34.0,40.0,33.5,28.0,92,74,47,0.00,40.00,0,0,0,0.55
2013-4-26,60.0,45.8,31.0,38.0,33.0,29.0,96,65,37,0.00,40.00,0,0,0,0.00
2013-4-27,70.0,53.4,35.0,43.0,37.7,34.0,96,60,29,0.00,40.00,0,0,0,0.00
2013-4-28,59.0,53.6,48.0,58.0,50.6,-99.9,98,92,64,0.00,40.00,0,0,0,6.17
2013-4-29,70.0,60.2,53.0,58.0,54.5,52.0,98,83,53,0.00,40.00,0,0,0,0.00
2013-4-30,75.0,63.2,51.0,58.0,55.1,51.0,98,77,49,0.00,40.00,0,0,0,0.00
2013-5-1,83.0,66.9,53.0,60.0,56.4,52.0,98,73,40,0.00,40.00,0,0,0,0.00
2013-5-2,79.0,63.8,50.0,58.0,52.3,47.0,98,70,38,0.00,40.00,0,0,0,0.00
2013-5-3,79.0,65.3,54.0,59.0,51.1,36.0,93,65,23,0.00,40.00,0,0,0,0.00
2013-5-4,68.0,59.5,52.0,51.0,47.5,42.0,88,66,40,0.00,40.00,0,0,0,0.00
2013-5-5,68.0,58.5,49.0,51.0,46.5,42.0,95,67,40,0.00,40.00,0,0,0,0.00
2013-5-6,70.0,58.8,46.0,53.0,48.6,45.0,96,70,49,0.00,40.00,0,0,0,0.00
2013-5-7,72.0,60.3,47.0,59.0,52.3,45.0,92,76,53,0.00,40.00,0,0,0,0.00
2013-5-8,78.0,64.7,53.0,57.0,53.2,49.0,94,68,43,0.00,40.00,0,0,0,1.10
2013-5-9,82.0,68.5,52.0,57.0,51.5,44.0,98,60,28,0.00,40.00,0,0,0,0.00
2013-5-10,71.0,61.5,46.0,63.0,55.5,-99.9,98,85,63,0.00,40.00,0,0,0,2.20
2013-5-11,59.0,48.1,39.0,48.0,43.7,34.0,96,85,62,0.00,40.00,0,0,0,0.00
2013-5-12,51.0,42.5,36.0,36.0,29.4,-99.9,92,63,39,0.00,40.00,0,0,0,0.00
2013-5-13,57.0,44.6,32.0,32.0,25.7,22.0,88,52,26,0.00,40.00,0,0,0,0.00
2013-5-14,82.0,61.4,40.0,58.0,43.8,32.0,79,55,36,0.00,40.00,0,0,1,0.00
2013-5-15,88.0,76.2,65.0,63.0,55.3,45.0,77,51,26,0.00,40.00,0,0,0,0.00
2013-5-16,85.0,65.4,51.0,53.0,28.0,-99.9,83,48,27,0.00,40.00,0,0,0,0.00
2013-5-17,71.0,59.6,47.0,53.0,43.4,-99.9,88,64,47,0.00,40.00,0,0,0,0.00
2013-5-18,78.0,62.8,51.0,59.0,52.5,45.0,95,71,50,0.00,40.00,0,0,0,0.00
2013-5-19,88.0,69.6,53.0,67.0,60.3,51.0,95,75,47,0.00,40.00,0,0,0,0.00
2013-5-20,92.0,78.4,65.0,71.0,65.3,62.0,97,68,38,0.00,40.00,0,0,0,0.00
2013-5-21,87.0,78.3,71.0,69.0,63.0,58.0,92,62,38,0.00,40.00,0,0,0,0.00
2013-5-22,83.0,71.6,64.0,67.0,63.9,58.0,96,77,43,0.00,40.00,0,0,1,0.00
2013-5-23,67.0,57.6,46.0,63.0,55.9,45.0,98,94,77,0.00,40.00,25,9,32,5.63
2013-5-24,59.0,48.8,41.0,46.0,39.2,35.0,99,72,41,0.00,40.00,14,10,24,0.00
2013-5-25,66.0,52.7,36.0,47.0,39.0,34.0,99,64,32,0.00,40.00,10,4,24,0.00
2013-5-26,71.0,56.4,40.0,46.0,38.1,33.0,95,56,26,0.00,40.00,9,4,16,0.00
2013-5-27,55.0,52.8,50.0,55.0,48.2,41.0,99,85,60,0.00,40.00,14,8,21,11.16
2013-5-28,79.0,67.2,54.0,72.0,63.5,54.0,99,88,72,0.00,40.00,22,9,32,9.02
2013-5-29,84.0,76.1,71.0,70.0,66.0,64.0,86,71,53,0.00,40.00,19,12,29,0.00
2013-5-30,88.0,75.6,66.0,72.0,67.7,64.0,95,78,50,0.00,40.00,20,10,34,0.00
2013-5-31,80.0,74.1,69.0,72.0,68.6,67.0,97,83,67,0.00,40.00,22,13,30,0.00
2013-6-1,77.0,70.1,63.0,70.0,65.7,63.0,99,86,66,0.00,40.00,21,10,29,2.75
2013-6-2,71.0,65.9,57.0,68.0,58.9,-99.9,98,82,65,0.00,40.00,20,12,24,0.00
2013-6-3,69.0,58.3,47.0,50.0,42.9,37.0,87,59,33,0.00,40.00,12,6,17,0.00
2013-6-4,74.0,60.5,49.0,52.0,49.1,46.0,94,69,42,0.00,40.00,11,4,15,0.00
2013-6-5,72.0,60.9,50.0,56.0,49.8,44.0,91,69,39,0.00,40.00,14,8,18,0.00
2013-6-6,71.0,60.2,54.0,59.0,53.1,47.0,95,77,63,0.00,40.00,15,8,20,0.00
2013-6-7,62.0,56.5,52.0,55.0,53.1,51.0,98,89,74,0.00,40.00,11,6,15,0.00
2013-6-8,77.0,62.7,49.0,58.0,53.5,48.0,98,75,40,0.00,40.00,10,4,12,0.00
2013-6-9,78.0,66.9,57.0,68.0,61.1,55.0,95,82,69,0.00,40.00,17,8,22,0.00
2013-6-10,75.0,67.6,64.0,69.0,65.9,64.0,98,94,72,0.00,40.00,12,6,28,15.65
2013-6-11,83.0,73.1,65.0,68.0,65.8,64.0,97,79,55,0.00,40.00,12,8,16,0.00
2013-6-12,82.0,72.7,65.0,75.0,68.5,64.0,97,87,68,0.00,40.00,12,5,17,2.79
2013-6-13,78.0,69.7,63.0,67.0,60.4,53.0,98,75,44,0.00,40.00,18,11,25,3.94
2013-6-14,78.0,67.9,60.0,62.0,58.8,54.0,97,75,43,0.00,40.00,12,6,16,0.00
2013-6-15,80.0,67.1,56.0,67.0,60.5,56.0,97,81,49,0.00,40.00,12,6,21,1.10
2013-6-16,83.0,72.8,65.0,69.0,65.8,61.0,98,80,56,0.00,40.00,18,10,28,0.00
2013-6-17,86.0,75.1,64.0,72.0,64.0,57.0,97,71,39,0.00,40.00,11,6,16,0.55
2013-6-18,72.0,66.2,58.0,64.0,60.7,52.0,97,82,61,0.00,40.00,15,9,24,0.00
2013-6-19,76.0,62.3,49.0,58.0,52.0,46.0,92,71,47,0.00,40.00,10,5,16,0.00
2013-6-20,84.0,65.0,51.0,59.0,53.3,50.0,97,71,31,0.00,40.00,7,4,12,0.00
2013-6-22,90.0,81.2,69.0,76.0,72.7,68.0,97,77,57,0.00,40.00,17,9,22,3.93
2013-6-23,89.0,78.2,69.0,74.0,70.2,68.0,97,79,52,0.00,40.00,16,8,20,1.10
2013-6-24,86.0,75.1,68.0,73.0,69.9,67.0,98,85,62,0.00,40.00,14,7,21,0.00
2013-6-25,88.0,77.5,68.0,76.0,71.5,67.0,97,82,63,0.00,40.00,17,8,24,2.20
2013-6-26,85.0,72.1,66.0,74.0,68.9,65.0,97,90,67,0.00,40.00,15,6,27,8.46
2013-6-27,84.0,72.9,68.0,74.0,70.1,67.0,97,91,69,0.00,40.00,20,4,32,1.69
2013-6-28,80.0,68.4,63.0,70.0,65.5,62.0,98,91,61,0.00,40.00,14,5,22,0.00
2013-6-29,80.0,67.0,60.0,69.0,64.4,60.0,98,91,58,0.00,40.00,18,5,22,2.83
2013-6-30,78.0,66.9,62.0,65.0,62.5,61.0,97,87,59,0.00,40.00,17,8,21,1.65
2013-7-1,67.0,62.1,58.0,65.0,58.4,54.0,97,88,79,0.00,40.00,22,10,29,2.20
2013-7-2,74.0,64.6,60.0,67.0,62.8,59.0,98,93,77,0.00,40.00,15,9,20,0.55
2013-7-3,82.0,69.8,62.0,72.0,65.9,61.0,98,88,57,0.00,40.00,12,5,17,0.00
2013-7-4,81.0,74.0,67.0,72.0,68.4,66.0,97,83,64,0.00,40.00,9,4,12,0.00
2013-7-5,86.0,73.7,67.0,72.0,68.8,64.0,97,86,50,0.00,40.00,10,3,14,0.55
2013-7-6,81.0,73.0,67.0,74.0,70.5,67.0,98,92,69,0.00,40.00,9,4,11,5.63
2013-7-7,81.0,72.0,67.0,74.0,68.7,65.0,97,89,70,0.00,40.00,19,7,32,1.10
2013-7-8,82.0,71.7,66.0,77.0,68.4,-99.9,98,92,79,0.00,40.00,12,5,17,0.55
2013-7-9,88.0,74.8,70.0,79.0,73.1,70.0,98,94,71,0.00,40.00,9,5,16,2.20
2013-7-10,86.0,74.1,66.0,80.0,67.9,-99.9,98,86,59,0.00,40.00,16,8,24,3.39
2013-7-11,80.0,69.1,62.0,64.0,59.5,54.0,96,75,43,0.00,40.00,12,6,19,0.00
2013-7-12,82.0,68.6,56.0,63.0,59.4,55.0,98,76,39,0.00,40.00,12,6,20,0.00
2013-7-13,85.0,74.3,60.0,69.0,64.4,59.0,97,73,49,0.00,40.00,12,7,17,0.00
2013-7-14,90.0,77.3,65.0,76.0,68.7,64.0,98,78,51,0.00,40.00,12,6,16,0.00
2013-7-15,91.0,79.7,70.0,78.0,73.9,69.0,97,84,59,0.00,40.00,7,3,13,0.55
2013-7-16,92.0,82.9,74.0,79.0,76.0,73.0,97,81,58,0.00,40.00,7,4,11,0.00
2013-7-17,93.0,81.6,72.0,80.0,76.1,71.0,97,84,61,0.00,40.00,11,5,17,0.00
2013-7-18,93.0,82.6,73.0,81.0,76.1,72.0,97,82,58,0.00,40.00,11,5,15,0.00
2013-7-19,92.0,83.5,75.0,78.0,75.0,73.0,96,77,54,0.00,40.00,19,11,27,0.00
2013-7-20,87.0,78.0,70.0,77.0,70.1,-99.9,98,79,52,0.00,40.00,17,6,34,1.10
2013-7-21,89.0,74.6,65.0,68.0,65.2,63.0,98,75,42,0.00,40.00,9,5,13,0.00
2013-7-22,83.0,72.2,69.0,73.0,68.5,66.0,97,89,57,0.00,40.00,8,4,12,6.72
2013-7-23,85.0,72.7,65.0,73.0,67.7,58.0,98,85,59,0.00,40.00,16,7,23,0.00
2013-7-24,74.0,63.0,53.0,58.0,53.2,50.0,97,73,43,0.00,40.00,12,7,19,0.00
2013-7-25,80.0,63.5,51.0,60.0,54.1,50.0,98,76,37,0.00,40.00,6,3,11,0.00
2013-7-26,78.0,67.1,54.0,66.0,59.3,54.0,98,78,49,0.00,40.00,10,4,15,0.00
2013-7-27,76.0,66.6,56.0,70.0,63.2,55.0,98,89,62,0.00,40.00,16,8,29,4.49
2013-7-28,68.0,59.2,51.0,55.0,52.3,50.0,98,80,57,0.00,40.00,16,8,29,0.00
2013-7-29,74.0,59.3,52.0,59.0,54.7,51.0,97,86,55,0.00,40.00,14,6,20,0.00
2013-7-30,81.0,64.3,50.0,65.0,57.3,50.0,98,80,48,0.00,40.00,7,2,9,0.00
2013-7-31,76.0,69.3,65.0,71.0,66.6,64.0,98,91,69,0.00,40.00,12,5,16,6.72
2013-8-1,80.0,70.3,60.0,68.0,62.8,55.0,98,79,45,0.00,40.00,12,6,18,0.00
2013-8-2,73.0,64.0,54.0,70.0,61.4,53.0,97,91,74,0.00,40.00,14,6,21,1.10
2013-8-3,81.0,70.4,61.0,66.0,59.8,55.0,98,73,43,0.00,40.00,11,5,16,0.00
2013-8-4,75.0,64.7,53.0,60.0,55.5,52.0,97,74,47,0.00,40.00,12,6,19,0.00
2013-8-5,74.0,64.1,54.0,63.0,57.7,52.0,97,82,47,0.00,40.00,6,3,9,0.00
2013-8-6,78.0,69.3,63.0,69.0,64.9,62.0,97,86,65,0.00,40.00,12,5,16,2.24
2013-8-7,82.0,72.1,65.0,76.0,69.8,64.0,98,93,67,0.00,40.00,13,5,17,3.94
2013-8-8,74.0,71.1,67.0,71.0,68.0,65.0,97,90,78,0.00,40.00,12,6,17,0.00
2013-8-9,81.0,70.7,63.0,68.0,62.1,52.0,96,77,44,0.00,40.00,8,5,12,0.00
2013-8-10,81.0,70.8,62.0,66.0,64.0,61.0,97,80,58,0.00,40.00,11,5,15,0.00
2013-8-11,83.0,68.6,55.0,66.0,60.0,54.0,98,77,42,0.00,40.00,9,3,12,0.00
2013-8-12,82.0,69.6,64.0,74.0,65.8,63.0,97,88,63,0.00,40.00,9,4,12,0.00
2013-8-13,69.0,61.6,53.0,68.0,53.3,-99.9,98,78,49,0.00,40.00,15,7,22,0.00
2013-8-14,73.0,57.4,45.0,54.0,48.9,45.0,98,77,41,0.00,40.00,11,5,16,0.00
2013-8-15,77.0,54.3,46.0,57.0,35.8,-99.9,98,72,38,0.00,40.00,9,2,11,0.00
2013-8-16,81.0,63.7,52.0,59.0,48.7,-99.9,98,68,35,0.00,40.00,9,3,12,0.00
2013-8-17,81.0,64.8,50.0,63.0,55.8,49.0,98,76,43,0.00,40.00,12,5,16,0.00
2013-8-18,84.0,67.3,55.0,67.0,56.2,-99.9,98,74,38,0.00,40.00,9,4,12,0.00
2013-8-19,85.0,64.3,55.0,65.0,45.7,-99.9,97,76,44,0.00,40.00,10,3,17,0.00
2013-8-20,86.0,69.8,58.0,69.0,61.0,-99.9,98,80,48,0.00,40.00,10,4,14,0.00
2013-8-21,86.0,74.2,62.0,71.0,67.1,62.0,98,80,50,0.00,40.00,11,6,17,0.00
2013-8-22,84.0,73.3,67.0,72.0,69.4,67.0,98,88,65,0.00,40.00,9,6,15,3.30
2013-8-23,83.0,71.3,60.0,67.0,59.6,51.0,98,72,34,0.00,40.00,11,6,16,0.00
2013-8-24,85.0,68.4,53.0,65.0,56.5,53.0,98,71,34,0.00,40.00,11,4,14,0.00
2013-8-25,88.0,69.9,54.0,67.0,58.4,-99.9,98,73,42,0.00,40.00,12,5,16,0.00
2013-8-26,89.0,76.4,64.0,72.0,67.5,63.0,96,75,53,0.00,40.00,13,8,20,0.00
2013-8-27,83.0,75.1,71.0,76.0,73.0,71.0,98,93,78,0.00,40.00,14,7,19,0.55
2013-8-28,83.0,79.9,72.0,77.0,74.5,71.0,97,84,74,0.00,40.00,12,8,17,0.00
2013-8-29,90.0,74.3,65.0,73.0,68.3,64.0,98,84,48,0.00,40.00,9,4,13,0.00
2013-8-30,88.0,74.2,61.0,74.0,67.6,60.0,98,82,53,0.00,40.00,12,5,21,0.00
2013-8-31,86.0,76.5,67.0,74.0,70.0,66.0,97,81,54,0.00,40.00,11,5,17,0.00
2013-9-1,81.0,73.4,69.0,73.0,68.4,-99.9,98,88,72,0.00,40.00,9,5,13,1.10
2013-9-2,80.0,69.9,59.0,70.0,63.7,56.0,98,83,49,0.00,40.00,12,6,21,0.00
2013-9-3,76.0,63.6,56.0,59.0,54.7,52.0,96,74,49,0.00,40.00,9,6,15,0.00
2013-9-4,83.0,67.2,53.0,62.0,57.1,52.0,98,74,38,0.00,40.00,11,7,19,0.00
2013-9-5,73.0,63.7,53.0,62.0,50.8,37.0,97,69,29,0.00,40.00,12,6,17,0.00
2013-9-6,78.0,61.4,46.0,57.0,49.2,46.0,98,70,33,0.00,40.00,6,3,8,0.00
2013-9-7,86.0,66.3,54.0,72.0,59.3,50.0,96,79,50,0.00,40.00,11,5,19,0.00
2013-9-8,76.0,67.6,60.0,68.0,61.6,-99.9,97,84,58,0.00,40.00,16,8,20,0.00
2013-9-9,88.0,66.9,55.0,75.0,63.9,54.0,98,91,59,0.00,40.00,8,3,12,2.79
2013-9-10,97.0,81.7,74.0,75.0,70.9,64.0,97,73,37,0.00,40.00,12,8,19,0.00
2013-9-11,95.0,79.9,69.0,73.0,70.6,66.0,97,76,42,0.00,40.00,15,8,29,0.00
2013-9-12,81.0,70.4,58.0,71.0,63.8,54.0,98,82,42,0.00,40.00,15,6,25,1.69
2013-9-13,62.0,54.6,45.0,53.0,47.0,42.0,96,77,50,0.00,40.00,14,8,19,0.00
2013-9-19,82.0,67.6,59.0,70.0,63.8,58.0,98,88,60,0.00,40.00,9,6,16,0.00
2013-9-20,84.0,72.9,68.0,72.0,69.1,68.0,98,89,59,0.00,40.00,16,9,22,10.07
2013-9-21,71.0,62.7,51.0,67.0,56.1,45.0,98,81,41,0.00,40.00,16,8,21,5.58
2013-9-22,62.0,52.2,46.0,51.0,42.0,-99.9,97,73,48,0.00,40.00,11,6,17,0.00
2013-9-23,64.0,50.7,42.0,50.0,44.9,41.0,98,82,48,0.00,40.00,9,4,14,0.00
2013-9-24,68.0,51.1,38.0,53.0,43.8,38.0,99,80,43,0.00,40.00,11,4,16,0.00
2013-9-25,72.0,56.9,44.0,57.0,50.6,44.0,98,82,47,0.00,40.00,15,5,17,0.00
2013-9-26,77.0,59.5,44.0,59.0,48.0,42.0,98,73,29,0.00,40.00,12,6,17,0.00
2013-9-27,76.0,59.5,45.0,61.0,51.8,45.0,98,79,46,0.00,40.00,14,7,21,0.00
2013-9-28,83.0,60.7,44.0,59.0,50.2,43.0,98,75,32,0.00,40.00,12,4,16,0.00
2013-9-29,63.0,59.8,58.0,63.0,56.5,-99.9,98,92,83,0.00,40.00,7,5,12,6.72
2013-9-30,73.0,60.2,53.0,59.0,56.0,53.0,98,87,51,0.00,40.00,11,4,19,0.00
2013-10-1,68.0,63.8,54.0,61.0,59.9,53.0,96,87,77,0.00,40.00,7,6,11,0.00
2013-10-2,85.0,69.0,62.0,66.0,57.6,51.0,98,73,33,0.00,40.00,8,5,12,0.00
2013-10-3,79.0,67.6,58.0,70.0,64.2,57.0,98,89,68,0.00,40.00,12,4,18,0.00
2013-10-4,80.0,69.4,66.0,73.0,67.5,65.0,98,94,70,0.00,40.00,12,7,18,2.79
2013-10-5,74.0,68.2,64.0,71.0,67.5,64.0,98,97,89,0.00,40.00,12,4,16,3.34
2013-10-6,70.0,64.6,55.0,69.0,63.8,55.0,98,96,87,0.00,40.00,21,9,27,7.70
2013-10-7,61.0,51.3,44.0,55.0,44.6,42.0,98,79,49,0.00,40.00,21,9,26,0.00
2013-10-8,71.0,51.6,40.0,52.0,44.1,39.0,99,80,37,0.00,40.00,8,4,11,0.00
2013-10-9,71.0,53.9,41.0,56.0,45.1,41.0,99,77,36,0.00,40.00,13,5,21,0.00
2013-10-10,75.0,55.1,39.0,57.0,43.5,39.0,99,72,29,0.00,40.00,9,4,12,0.00
2013-10-11,76.0,56.1,42.0,57.0,48.7,42.0,98,79,44,0.00,40.00,9,4,12,0.00
2013-10-12,80.0,61.9,47.0,61.0,52.0,46.0,98,76,32,0.00,40.00,10,4,14,3.38
2013-10-13,72.0,59.6,47.0,60.0,45.1,-99.9,96,67,28,0.00,40.00,9,6,24,0.00
2013-10-14,65.0,51.8,42.0,49.0,44.2,41.0,98,78,45,0.00,40.00,13,7,17,0.00
2013-10-15,63.0,52.2,40.0,62.0,51.1,40.0,99,95,86,0.00,40.00,11,5,17,1.10
2013-10-16,63.0,58.6,52.0,63.0,50.5,42.0,98,76,48,0.00,40.00,15,9,22,0.00
2013-10-17,51.0,47.8,42.0,49.0,46.0,42.0,98,93,82,0.00,40.00,12,7,19,4.52
2013-10-18,64.0,50.1,40.0,46.0,42.1,38.0,98,77,40,0.00,40.00,17,8,26,0.00
2013-10-19,49.0,43.8,40.0,45.0,41.0,37.0,99,90,68,0.00,40.00,15,7,19,13.99
2013-10-20,62.0,49.0,40.0,44.0,36.9,-99.9,88,68,37,0.00,40.00,15,10,25,0.00
2013-11-22,47.0,41.9,29.0,47.0,40.2,25.0,99,93,74,0.00,40.00,24,8,30,2.20
2013-11-23,31.0,25.5,18.0,26.0,16.9,-99.9,94,74,50,0.00,40.00,24,14,32,0.00
2013-11-24,27.0,19.1,12.0,17.0,12.1,7.0,88,74,49,0.00,40.00,19,9,24,0.00
2013-11-25,31.0,26.3,19.0,22.0,16.7,14.0,84,67,51,0.00,40.00,22,15,29,0.55
2013-11-26,35.0,31.9,29.0,29.0,26.9,22.0,91,81,70,0.00,40.00,19,8,22,0.00
2013-11-27,30.0,25.0,17.0,25.0,15.5,10.0,85,67,49,0.00,40.00,22,15,30,0.55
2013-11-28,28.0,24.6,17.0,22.0,16.6,11.0,91,71,57,0.00,40.00,14,6,19,0.00
2013-12-6,31.0,28.3,23.0,24.0,20.9,17.0,79,73,66,0.00,40.00,11,8,14,0.00
2013-12-7,26.0,20.2,14.0,18.0,11.0,-99.9,87,71,54,0.00,40.00,14,7,18,0.00
2013-12-8,28.0,21.4,13.0,28.0,18.6,11.0,99,88,81,0.00,40.00,15,10,19,0.55
2013-12-9,30.0,26.0,19.0,30.0,21.9,12.0,99,84,72,0.00,40.00,21,12,30,0.00
2013-12-10,24.0,18.0,10.0,12.0,8.9,2.0,82,67,49,0.00,40.00,25,14,33,0.00
2013-12-11,25.0,17.5,9.0,20.0,12.4,6.0,93,80,70,0.00,40.00,15,10,21,0.00
2013-12-12,17.0,11.3,5.0,10.0,5.2,1.0,92,75,58,0.00,40.00,17,10,25,0.00
2013-12-13,34.0,22.2,14.0,25.0,15.5,8.0,91,75,59,0.00,40.00,12,7,19,0.00
2013-12-14,27.0,21.8,20.0,25.0,19.6,-99.9,99,96,90,0.00,40.00,17,14,21,47.30
2013-12-16,22.0,16.4,11.0,17.0,11.2,8.0,95,80,60,0.00,40.00,6,3,7,5.63
2013-12-17,24.0,20.2,15.0,22.0,19.3,14.0,98,95,91,0.00,40.00,19,10,24,1.10
2013-12-18,29.0,21.6,14.0,23.0,17.2,13.0,98,83,65,0.00,40.00,21,12,24,0.00
2013-12-19,40.0,35.8,29.0,38.0,29.6,19.0,95,78,61,0.00,40.00,17,9,22,0.00
2013-12-20,53.0,44.5,39.0,53.0,44.1,36.0,99,98,85,0.00,40.00,16,10,21,9.39
2013-12-21,53.0,38.1,33.0,53.0,36.3,-99.9,99,97,97,0.00,40.00,21,10,24,14.00
2013-12-22,41.0,36.0,33.0,39.0,34.7,33.0,99,95,86,0.00,40.00,24,11,37,1.10
2013-12-23,34.0,29.5,20.0,33.0,24.4,13.0,94,80,68,0.00,40.00,18,12,25,0.00